Aérodrome :
LOGIN :

S'inscrire | Disclaimer

   EN    FR    IT 

 










Légende :    VFR   VFR Marginal   IFR   IFR Intensif   IFR Très Intensif
Visi : 
Plafond : 
>= 8 km
>= 3000ft
5 à 8 km
1000 à 3000 ft
1500m à 5 km
500 à 1000 ft
800 à 1500m
200 à 500 ft
< 800m
< 200 ft
Symboles :   Orages  Brouillard  Fortes neiges  Fortes précipitations  Vent > 20 kt
SIGMETs :   Divers  Orages  Givrage  Turbulence  Onde Orograph.  Cendres Volcan.






- Altitude de l'aérodrome : 408 ft
- Code IATA : FKB


EDSB - Karlsruhe Baden Baden

DERNIER METAR :
  • 151450Z 16007KT 7000 -RA SCT040 OVC046 09/07 Q1009

METARs EXPIRÉS :
  • 151420Z 16007KT 7000 -RA OVC046 08/07 Q1008 RERA
  • 151350Z 22007KT 7000 RA BKN040 OVC046 09/07 Q1008
  • 151320Z 23005KT 210V290 6000 RA FEW028 OVC039 09/07 Q1008
  • 151250Z 25007KT 220V280 8000 -RA SCT031 OVC041 09/07 Q1007
  • 151220Z 25008KT 210V300 8000 -RA OVC033 09/07 Q1007 RESHRA

TAF TAF EDSB
Valide du 15 à 12h jusqu'au 16 à 12h UTC


151100Z 1512/1612 23015G25KT 9999 BKN030
BECMG 1512/1515 23008KT
TEMPO 1512/1524 4500 RA BKN012
BECMG 1515/1518 VRB03KT



MET'MAP, la Météo Aéronautique d'un coup d'oeil ! - Copyright ORBIFLY Décembre 2007 - Disclaimer

ORBIFLY MET'MAP TEAM :

Programmation & Développement : Alexandra Zaïnal
Sur une idée originale de : Baudouin d'Aumeries
Assistance à la programmation : Marc-Olivier Méhu
Soutien technique & logistique : Manuel Goepfert

Contact : metmap@orbifly.com




SOURCES & CREDITS :

   NOAA